Baileyville, IL (61007)

12:23 AM CDT on July 07, 2015 (GMT -0500)
KILFREEP4 | | Change Station
CLOSE
Current Station
Personal Weather Station
Location: Freeport, IL
Elevation: 792 ft
Nearby Weather Stations

Elev 792 ft 42.26 °N, 89.62 °W | Updated 40 seconds ago

Rain
Rain
65.9 °F
Feels Like 65.9 °F
N
11.0
Wind Variable Wind from NNW
Gusts 14.0 mph

Today
High -- | Low -- °F
--% Chance of Precip.
Yesterday
High -- | Low -- °F
Precip. -- in
5:29 AM 8:36 PM
Waning Gibbous, 68% visible
Pressure 29.89 in
Visibility 2.5 miles
Clouds Mostly Cloudy 600 ft
Overcast 1200 ft
Dew Point 64 °F
Humidity 94%
Rainfall 0.00 in
Snow Depth Not available.
UV 0 out of 12
Pollen 4.90 out of 12
Air Quality Not available.
Flu Activity Not available.
METAR KFEP 070515Z AUTO 33014KT 2 1/2SM -DZ BKN006 OVC012 19/18 A2989 RMK AO2 P0001 T01850179

More Conditions Fewer Conditions

Pressure 29.89 in
Visibility 2.5 miles
Clouds Mostly Cloudy 600 ft
Overcast 1200 ft
Dew Point 64 °F
Humidity 94%
Rainfall 0.00 in
Snow Depth Not available.
UV 0 out of 12
Pollen 4.90 out of 12
Air Quality Not available.
Flu Activity Not available.
METAR KFEP 070515Z AUTO 33014KT 2 1/2SM -DZ BKN006 OVC012 19/18 A2989 RMK AO2 P0001 T01850179

More Conditions Fewer Conditions

10-Day Weather Forecast

×

Almanac

Astronomy

Jul. 07, 2015 Rise Set
Actual Time
Civil Twilight
Nautical Twilight
Astronomical Twilight
Moon
Length of Visible Light
Length of Day
Tomorrow will be .
, % of the Moon is Illuminated

Today's Extremes

State Highs State Lows

Community

WunderPhotos

Upload Photos

1,835,731 photos uploaded!

WunderBlogs® & News

Nearby

Air Quality

  Air Quality AQ Index Pollutant
Not available.

Snow Depth

Station Depth Elevation

Earthquake Activity

City Distance Mag. Time & Date
Minimum magnitude displayed is 2.5.

Coastal Water Temperatures

Place Temperature

Stations

Nearby Weather Stations

Station Location Temp. Windchill Dew Point Humidity Wind Precip. Elev Updated Type